Carson, Washington
Current Conditions -  °F | °C
As of 1:59 PM on Saturday 20 Dec 2014 (Local Time) from K4S2 Reporting Station
Moderate Rain Moderate Rain  
Wind Chill: 41°   Ceiling: 400
Heat Index: 41°   Visibility: 2mi
Dew Point: 41°   Wind: 0mph
Humidity: 100%   Direction: NA
Pressure: 29.69"   Gusts: NA
Location:  45.72°N, 121.82°W
Report Text: K4S2 202159Z AUTO 00000KT 2SM RA OVC004 05/05 A2969 RMK AO2 P0016 SLP068 T00500050
Loading
Personal Weather Stations






























Interactive Weather Map New forecast layout! Learn more

10-Day Weather Forecast

Advertisements
Track Severe Weather on mobile